Terminal Aerodrome Forecast
Issued by NWS Tallahassee, FL

Home | Current Version | Previous Version | Text Only | Print | Product List | Glossary On
Versions: 1 2 3 4 5 6 7 8 9 10 11 12 13 14 15 16
518
FTUS42 KTAE 181841 AAA
TAFTLH
TAF AMD
KTLH 181841Z 1819/1918 22005KT P6SM VCTS SCT020 BKN040CB
      TEMPO 1819/1821 5SM TSRA BKN020CB
     FM190200 00000KT 1SM BR OVC004
      TEMPO 1908/1912 1/4SM FG VV002
     FM191300 VRB04KT 5SM BR OVC007
     FM191500 22005KT P6SM BKN015=

USA.gov is the U.S. government's official web portal to all federal, state and local government web resources and services.